GCFIZ FGAN-FPST
Flight info
| Callsign | GCFIZ |
|---|---|
| Flight time | N/A |
| Altitude | 3500 |
| Route | FGAN ROLAS FPST |
| Aircraft | CT4/L-G/L |
Departure
| Time | 2026-04-20 18:10 |
|---|---|
| Airport | Annobón Airport (FGAN) |
Arrival
| Time | N/A |
|---|---|
| Airport | São Tomé International Airport (FPST) |
| Time | Latitude | Longitude | Altitude | Speed | Heading |
|---|---|---|---|---|---|
| 2026-04-20 17:36 | -1.40741 | 5.62441 | 85 ft | 0 kts | 141° |
| 2026-04-20 17:43 | -1.40741 | 5.62442 | 85 ft | 0 kts | 145° |
| 2026-04-20 17:43 | -1.40742 | 5.62442 | 85 ft | 0 kts | 141° |
| 2026-04-20 17:44 | -1.40744 | 5.62444 | 85 ft | 0 kts | 142° |
| 2026-04-20 17:44 | -1.40745 | 5.62444 | 85 ft | 0 kts | 147° |
| 2026-04-20 17:44 | -1.40746 | 5.62445 | 85 ft | 0 kts | 142° |
| 2026-04-20 17:45 | -1.40747 | 5.62446 | 85 ft | 0 kts | 139° |
| 2026-04-20 17:45 | -1.40748 | 5.62447 | 85 ft | 0 kts | 138° |
| 2026-04-20 17:45 | -1.40749 | 5.62448 | 85 ft | 0 kts | 140° |
| 2026-04-20 17:46 | -1.40751 | 5.62449 | 85 ft | 0 kts | 141° |
| 2026-04-20 17:46 | -1.40753 | 5.62451 | 85 ft | 0 kts | 140° |
| 2026-04-20 17:46 | -1.40754 | 5.62452 | 85 ft | 0 kts | 141° |
| 2026-04-20 17:46 | -1.40756 | 5.62454 | 85 ft | 0 kts | 140° |
| 2026-04-20 17:47 | -1.40758 | 5.62455 | 85 ft | 0 kts | 140° |
| 2026-04-20 17:47 | -1.40759 | 5.62456 | 85 ft | 0 kts | 139° |
| 2026-04-20 17:47 | -1.40760 | 5.62457 | 85 ft | 0 kts | 140° |
| 2026-04-20 17:48 | -1.40746 | 5.62455 | 85 ft | 6 kts | 305° |
| 2026-04-20 17:49 | -1.40730 | 5.62443 | 85 ft | 0 kts | 77° |
| 2026-04-20 17:49 | -1.40730 | 5.62445 | 85 ft | 0 kts | 128° |
| 2026-04-20 18:06 | -1.40731 | 5.62446 | 85 ft | 0 kts | 110° |
| 2026-04-20 18:06 | -1.40731 | 5.62445 | 85 ft | 0 kts | 110° |
| 2026-04-20 18:08 | -1.40731 | 5.62446 | 85 ft | 0 kts | 110° |
| 2026-04-20 18:08 | -1.40747 | 5.62438 | 85 ft | 5 kts | 220° |
| 2026-04-20 18:09 | -1.40789 | 5.62435 | 85 ft | 5 kts | 129° |
| 2026-04-20 18:09 | -1.40794 | 5.62441 | 85 ft | 0 kts | 133° |
| 2026-04-20 18:09 | -1.40801 | 5.62448 | 85 ft | 4 kts | 131° |
| 2026-04-20 18:09 | -1.40834 | 5.62453 | 85 ft | 0 kts | 224° |
| 2026-04-20 18:10 | -1.40910 | 5.62370 | 85 ft | 56 kts | 229° |
| 2026-04-20 18:10 | -1.41309 | 5.61921 | 221 ft | 106 kts | 228° |
| 2026-04-20 18:10 | -1.41739 | 5.61275 | 636 ft | 118 kts | 250° |
| 2026-04-20 18:10 | -1.41605 | 5.60518 | 1146 ft | 118 kts | 307° |
| 2026-04-20 18:11 | -1.40958 | 5.60058 | 1612 ft | 122 kts | 331° |
| 2026-04-20 18:11 | -1.40113 | 5.59774 | 1808 ft | 132 kts | 358° |
| 2026-04-20 18:11 | -1.39297 | 5.60092 | 2011 ft | 130 kts | 46° |
| 2026-04-20 18:11 | -1.38737 | 5.60796 | 2192 ft | 130 kts | 56° |
| 2026-04-20 18:12 | -1.38366 | 5.61322 | 2295 ft | 128 kts | 57° |